Time;durP1;ratioP1;P1;durP2;ratioP2;P2;SDS_P1;SDS_P2;PMS_P1;PMS_P2;Temp;Humidity;BMP_temperature;BMP_pressure;BME280_temperature;BME280_humidity;BME280_pressure;Samples;Min_cycle;Max_cycle;Signal;HPM_P1;HPM_P2
2021/03/12 00:00:18;;;;;;;1.30;0.53;;;6.40;59.30;;;;;;5010452;28;39969;-87
2021/03/12 00:02:45;;;;;;;1.53;0.47;;;6.40;59.50;;;;;;4998733;28;37016;-86
2021/03/12 00:05:13;;;;;;;1.37;0.40;;;6.40;59.70;;;;;;5001697;28;36478;-86
2021/03/12 00:07:40;;;;;;;2.03;0.47;;;6.50;59.60;;;;;;5011647;28;39509;-87
2021/03/12 00:10:12;;;;;;;1.03;0.50;;;6.50;59.40;;;;;;4993204;28;37752;-86
2021/03/12 00:12:40;;;;;;;3.00;1.00;;;6.50;59.50;;;;;;5024125;28;37998;-86
2021/03/12 00:15:09;;;;;;;0.70;0.40;;;6.50;59.60;;;;;;5027359;28;37171;-86
2021/03/12 00:17:37;;;;;;;0.93;0.50;;;6.50;59.60;;;;;;5031249;28;41086;-85
2021/03/12 00:20:07;;;;;;;0.60;0.43;;;6.70;59.40;;;;;;5039406;28;37953;-86
2021/03/12 00:22:34;;;;;;;1.30;0.70;;;6.70;59.20;;;;;;5023528;28;39068;-86
2021/03/12 00:25:01;;;;;;;0.97;0.40;;;6.70;59.10;;;;;;5013394;28;37143;-87
2021/03/12 00:27:28;;;;;;;0.80;0.50;;;6.70;59.10;;;;;;5002725;28;38384;-86
2021/03/12 00:29:57;;;;;;;1.00;0.50;;;6.80;58.60;;;;;;5030652;28;38244;-87
2021/03/12 00:32:24;;;;;;;1.20;0.40;;;6.80;58.60;;;;;;5019175;28;38137;-89
2021/03/12 00:34:51;;;;;;;1.27;0.50;;;6.90;58.70;;;;;;5008728;28;37726;-88
2021/03/12 00:37:18;;;;;;;1.20;0.57;;;6.90;58.00;;;;;;4999116;28;38351;-87
2021/03/12 00:39:45;;;;;;;2.80;0.53;;;6.90;57.80;;;;;;5032806;28;39319;-88
2021/03/12 00:42:14;;;;;;;0.73;0.50;;;6.90;57.90;;;;;;5026518;28;36789;-87
2021/03/12 00:44:42;;;;;;;2.33;0.50;;;6.80;57.80;;;;;;5022726;28;37815;-88
2021/03/12 00:47:10;;;;;;;1.73;0.50;;;6.80;58.00;;;;;;4997867;28;38307;-87
2021/03/12 00:49:37;;;;;;;0.90;0.50;;;6.80;58.00;;;;;;4992559;28;38083;-88
2021/03/12 00:52:05;;;;;;;1.00;0.50;;;6.90;58.10;;;;;;4998893;28;36859;-89
2021/03/12 00:54:33;;;;;;;1.07;0.60;;;6.90;57.50;;;;;;5011589;28;37320;-87
2021/03/12 00:57:15;;;;;;;1.87;0.67;;;7.00;57.60;;;;;;5012634;28;39667;-87
2021/03/12 00:59:42;;;;;;;1.63;0.50;;;6.90;57.40;;;;;;4994959;28;39575;-86
2021/03/12 01:02:10;;;;;;;1.43;0.40;;;6.90;57.50;;;;;;4989243;28;36912;-85
2021/03/12 01:04:38;;;;;;;0.90;0.40;;;7.00;57.60;;;;;;4987390;28;36387;-85
2021/03/12 01:07:10;;;;;;;0.90;0.50;;;7.00;57.70;;;;;;5025174;28;39889;-85
2021/03/12 01:09:39;;;;;;;1.10;0.80;;;7.10;57.40;;;;;;4996717;28;37886;-85
2021/03/12 01:12:09;;;;;;;0.87;0.47;;;7.10;57.00;;;;;;4983661;28;38001;-86
2021/03/12 01:14:40;;;;;;;1.93;0.60;;;7.20;56.90;;;;;;5008399;28;36016;-85
2021/03/12 01:17:07;;;;;;;1.87;0.50;;;7.20;56.70;;;;;;4986374;28;39691;-87
2021/03/12 01:19:36;;;;;;;0.70;0.50;;;7.30;56.60;;;;;;4986342;28;38749;-86
2021/03/12 01:22:06;;;;;;;1.00;0.50;;;7.40;56.50;;;;;;4990150;28;37940;-86
2021/03/12 01:24:34;;;;;;;3.07;0.50;;;7.40;56.50;;;;;;4987153;28;37544;-86
2021/03/12 01:27:07;;;;;;;0.70;0.40;;;7.40;56.40;;;;;;5005974;28;38193;-87
2021/03/12 01:29:34;;;;;;;0.80;0.50;;;7.50;56.50;;;;;;4995175;28;38090;-88
2021/03/12 01:32:09;;;;;;;1.30;0.60;;;7.50;56.30;;;;;;5013621;28;37782;-87
2021/03/12 01:34:43;;;;;;;2.03;0.60;;;7.40;56.40;;;;;;4985756;28;35778;-85
2021/03/12 01:37:11;;;;;;;0.70;0.60;;;7.40;56.40;;;;;;5022191;28;40099;-86
2021/03/12 01:39:50;;;;;;;0.73;0.50;;;7.40;56.40;;;;;;4993196;28;38511;-85
2021/03/12 01:42:24;;;;;;;1.57;0.53;;;7.30;56.30;;;;;;4993058;28;37500;-88
2021/03/12 01:44:52;;;;;;;3.20;0.63;;;7.30;56.30;;;;;;4997101;28;36180;-87
2021/03/12 01:47:20;;;;;;;1.40;0.60;;;7.30;56.50;;;;;;4989438;28;38293;-87
2021/03/12 01:49:49;;;;;;;0.83;0.60;;;7.30;56.40;;;;;;4997776;28;37894;-86
2021/03/12 01:52:16;;;;;;;1.67;0.50;;;7.40;56.50;;;;;;4993959;28;36865;-87
2021/03/12 01:54:44;;;;;;;1.10;0.60;;;7.40;56.10;;;;;;4988651;28;35811;-88
2021/03/12 01:57:15;;;;;;;1.80;0.53;;;7.40;55.90;;;;;;5002234;28;39133;-88
2021/03/12 01:59:58;;;;;;;1.53;0.50;;;7.40;55.90;;;;;;4987718;28;38061;-85
2021/03/12 02:02:43;;;;;;;4.17;0.80;;;7.40;55.50;;;;;;5015349;28;38293;-86
2021/03/12 02:05:32;;;;;;;2.73;0.83;;;7.30;55.20;;;;;;5007989;28;37226;-88
2021/03/12 02:07:59;;;;;;;1.50;0.50;;;7.30;54.70;;;;;;4996545;28;38576;-88
2021/03/12 02:10:36;;;;;;;2.13;0.93;;;7.40;54.70;;;;;;5002821;28;38238;-87
2021/03/12 02:13:10;;;;;;;0.80;0.50;;;7.30;54.70;;;;;;4997721;28;36863;-87
2021/03/12 02:15:46;;;;;;;1.37;0.60;;;7.30;54.70;;;;;;4995047;28;36919;-87
2021/03/12 02:18:19;;;;;;;4.93;0.63;;;7.30;54.70;;;;;;5002609;28;40243;-89
2021/03/12 02:20:55;;;;;;;1.10;0.93;;;7.30;54.80;;;;;;5012672;28;38560;-87
2021/03/12 02:24:04;;;;;;;4.27;1.00;;;7.30;54.90;;;;;;5000940;28;36790;-88
2021/03/12 02:27:01;;;;;;;3.40;0.73;;;7.30;54.90;;;;;;4939629;28;36940;-88
2021/03/12 02:29:32;;;;;;;1.73;0.77;;;7.30;54.80;;;;;;4994250;28;38657;-88
2021/03/12 02:32:03;;;;;;;2.07;1.17;;;7.20;55.00;;;;;;5001386;28;37875;-87
2021/03/12 02:34:34;;;;;;;0.90;0.80;;;7.20;54.90;;;;;;5004461;28;35095;-86
2021/03/12 02:37:09;;;;;;;2.57;1.43;;;7.20;55.00;;;;;;5011089;28;37366;-87
2021/03/12 02:39:46;;;;;;;2.20;0.70;;;7.20;54.70;;;;;;5017397;28;38365;-88
2021/03/12 02:42:16;;;;;;;2.03;0.50;;;7.20;54.10;;;;;;5027014;28;38870;-86
2021/03/12 02:44:49;;;;;;;2.57;0.70;;;7.20;54.20;;;;;;4998533;28;36768;-87
2021/03/12 02:47:27;;;;;;;3.20;0.97;;;7.20;53.50;;;;;;5011221;28;37533;-87
2021/03/12 02:49:59;;;;;;;3.53;1.23;;;7.20;54.00;;;;;;4986201;28;38690;-86
2021/03/12 02:52:27;;;;;;;1.63;0.70;;;7.20;53.30;;;;;;5014528;28;38221;-87
2021/03/12 02:54:54;;;;;;;2.20;0.60;;;7.10;53.30;;;;;;5020337;28;38172;-86
2021/03/12 02:57:26;;;;;;;0.83;0.60;;;7.10;53.10;;;;;;5002331;28;36127;-87
2021/03/12 02:59:56;;;;;;;2.23;0.60;;;7.00;52.90;;;;;;4992541;28;38810;-86
2021/03/12 03:02:43;;;;;;;3.80;0.80;;;7.00;52.50;;;;;;5009720;28;39755;-87
2021/03/12 03:05:33;;;;;;;2.03;0.63;;;6.90;52.50;;;;;;5008053;28;38855;-87
2021/03/12 03:08:02;;;;;;;2.70;0.67;;;6.90;52.60;;;;;;5023300;28;35798;-87
2021/03/12 03:10:29;;;;;;;2.03;0.53;;;6.90;52.60;;;;;;4992051;28;38601;-86
2021/03/12 03:12:58;;;;;;;0.70;0.50;;;6.80;52.50;;;;;;4991679;28;37693;-87
2021/03/12 03:15:26;;;;;;;1.47;0.60;;;6.80;52.40;;;;;;4995027;28;37981;-86
2021/03/12 03:17:54;;;;;;;2.60;0.80;;;6.70;52.70;;;;;;5003890;28;35703;-86
2021/03/12 03:20:27;;;;;;;4.20;0.63;;;6.80;52.70;;;;;;5009860;28;38041;-86
2021/03/12 03:22:56;;;;;;;1.00;0.60;;;6.80;52.50;;;;;;4991904;28;37995;-85
2021/03/12 03:25:23;;;;;;;2.03;0.70;;;6.80;52.40;;;;;;5006703;28;38255;-86
2021/03/12 03:27:52;;;;;;;2.33;0.67;;;6.70;52.30;;;;;;5015176;28;35895;-85
2021/03/12 03:30:22;;;;;;;1.70;0.60;;;6.70;52.10;;;;;;4991899;28;39839;-86
2021/03/12 03:32:56;;;;;;;1.43;0.70;;;6.50;52.10;;;;;;5005037;28;38290;-86
2021/03/12 03:35:24;;;;;;;2.37;0.80;;;6.30;52.50;;;;;;4996681;28;36696;-86
2021/03/12 03:37:52;;;;;;;0.97;0.77;;;6.30;52.70;;;;;;4997088;28;36186;-86
2021/03/12 03:40:20;;;;;;;1.77;0.63;;;6.10;52.90;;;;;;5010952;28;39908;-85
2021/03/12 03:42:48;;;;;;;2.83;0.60;;;6.00;52.90;;;;;;5023572;28;37919;-86
2021/03/12 03:45:19;;;;;;;1.53;0.70;;;6.00;53.10;;;;;;4991128;28;37226;-85
2021/03/12 03:47:55;;;;;;;1.70;0.80;;;6.00;53.20;;;;;;4985576;28;36050;-86
2021/03/12 03:50:24;;;;;;;3.07;0.73;;;5.90;53.00;;;;;;5009839;28;40612;-86
2021/03/12 03:52:51;;;;;;;2.40;0.73;;;5.90;53.30;;;;;;5005577;28;39542;-86
2021/03/12 03:55:21;;;;;;;2.07;0.63;;;5.90;53.40;;;;;;5007786;28;36574;-84
2021/03/12 03:57:49;;;;;;;4.07;0.83;;;5.80;53.40;;;;;;5013889;28;37503;-86
2021/03/12 04:00:17;;;;;;;3.70;0.63;;;5.80;53.70;;;;;;5013648;28;38483;-86
2021/03/12 04:02:51;;;;;;;1.57;0.50;;;5.80;53.90;;;;;;5002992;28;38905;-87
2021/03/12 04:05:24;;;;;;;1.57;0.70;;;5.80;54.30;;;;;;5022116;28;36828;-85
2021/03/12 04:07:59;;;;;;;2.33;0.80;;;5.80;54.10;;;;;;5004808;28;35934;-86
2021/03/12 04:10:26;;;;;;;1.33;0.80;;;5.90;54.40;;;;;;5008964;28;39574;-86
2021/03/12 04:12:55;;;;;;;1.63;0.77;;;5.90;54.50;;;;;;5001404;28;38120;-85
2021/03/12 04:15:25;;;;;;;2.13;0.60;;;6.00;54.70;;;;;;5004427;28;36797;-85
2021/03/12 04:17:54;;;;;;;2.03;0.70;;;6.10;54.60;;;;;;4991752;28;37272;-85
2021/03/12 04:20:23;;;;;;;1.10;0.83;;;6.30;54.20;;;;;;4996760;28;38381;-86
2021/03/12 04:22:53;;;;;;;0.93;0.63;;;6.40;54.20;;;;;;4977098;28;40222;-86
2021/03/12 04:25:24;;;;;;;0.73;0.50;;;6.50;53.20;;;;;;4998607;28;37928;-86
2021/03/12 04:27:52;;;;;;;3.73;0.90;;;6.50;53.00;;;;;;5001811;28;36950;-86
2021/03/12 04:30:21;;;;;;;1.60;0.60;;;6.50;52.70;;;;;;4994728;28;39772;-86
2021/03/12 04:32:50;;;;;;;2.40;0.60;;;6.50;52.00;;;;;;4993183;28;40346;-86
2021/03/12 04:35:20;;;;;;;1.83;0.63;;;6.40;51.80;;;;;;4990514;28;37862;-83
2021/03/12 04:37:48;;;;;;;2.07;0.80;;;6.30;51.50;;;;;;5022554;28;36153;-84
2021/03/12 04:40:19;;;;;;;1.47;0.70;;;6.30;51.50;;;;;;4994377;28;39727;-84
2021/03/12 04:42:49;;;;;;;1.87;0.77;;;6.20;51.00;;;;;;5000852;28;39006;-85
2021/03/12 04:45:19;;;;;;;4.00;0.93;;;6.10;50.00;;;;;;5002666;28;38482;-87
2021/03/12 04:47:50;;;;;;;1.77;0.80;;;6.10;49.90;;;;;;5024512;28;37145;-86
2021/03/12 04:50:19;;;;;;;2.70;0.77;;;6.00;49.50;;;;;;4987297;28;41021;-88
2021/03/12 04:52:49;;;;;;;1.60;0.80;;;6.00;49.30;;;;;;4992055;28;38917;-87
2021/03/12 04:55:20;;;;;;;2.50;0.70;;;6.00;49.20;;;;;;4998112;28;36763;-87
2021/03/12 04:57:51;;;;;;;3.73;1.00;;;5.90;48.90;;;;;;4997933;28;37701;-86
2021/03/12 05:00:21;;;;;;;3.23;1.10;;;5.90;49.10;;;;;;4996111;28;40121;-87
2021/03/12 05:02:55;;;;;;;4.00;0.93;;;5.90;49.40;;;;;;4992395;28;37683;-87
2021/03/12 05:05:24;;;;;;;1.43;0.60;;;5.90;49.40;;;;;;5006482;28;38133;-87
2021/03/12 05:07:53;;;;;;;4.03;0.80;;;5.90;49.40;;;;;;5008581;28;36853;-87
2021/03/12 05:10:33;;;;;;;1.03;0.80;;;5.90;49.40;;;;;;4992017;28;38911;-88
2021/03/12 05:13:04;;;;;;;3.57;0.60;;;5.80;49.40;;;;;;4992355;28;42062;-88
2021/03/12 05:15:36;;;;;;;2.10;0.70;;;5.70;49.20;;;;;;4991616;28;37955;-90
2021/03/12 05:18:05;;;;;;;3.80;0.83;;;5.60;49.20;;;;;;5009475;28;37131;-87
2021/03/12 05:20:32;;;;;;;1.20;0.63;;;5.50;49.30;;;;;;4989697;28;38244;-88
2021/03/12 05:23:01;;;;;;;3.53;0.70;;;5.40;49.30;;;;;;4995188;28;39092;-87
2021/03/12 05:25:28;;;;;;;3.60;1.37;;;5.40;49.60;;;;;;5007870;28;37673;-88
2021/03/12 05:27:56;;;;;;;2.70;1.00;;;5.40;49.60;;;;;;4991568;28;36851;-87
2021/03/12 05:30:26;;;;;;;6.67;1.90;;;5.40;49.60;;;;;;4990496;28;38424;-87
2021/03/12 05:32:56;;;;;;;5.07;1.30;;;5.50;49.60;;;;;;4990613;28;38542;-87
2021/03/12 05:35:24;;;;;;;3.50;1.20;;;5.50;49.70;;;;;;5006856;28;36989;-87
2021/03/12 05:37:51;;;;;;;2.03;1.40;;;5.50;49.90;;;;;;4987508;28;36176;-87
2021/03/12 05:40:22;;;;;;;2.80;1.20;;;5.60;49.90;;;;;;4990655;28;39643;-87
2021/03/12 05:42:55;;;;;;;3.20;0.80;;;5.70;49.70;;;;;;4995597;28;37786;-87
2021/03/12 05:45:23;;;;;;;1.40;0.73;;;5.60;49.40;;;;;;4994617;28;38443;-86
2021/03/12 05:48:08;;;;;;;2.20;1.00;;;5.60;49.30;;;;;;5010053;28;37213;-89
2021/03/12 05:50:35;;;;;;;4.23;1.67;;;5.50;49.40;;;;;;4994403;28;38827;-87
2021/03/12 05:53:04;;;;;;;2.80;0.90;;;5.60;48.90;;;;;;5011125;28;38822;-87
2021/03/12 05:55:35;;;;;;;2.33;1.63;;;5.50;48.90;;;;;;5010897;28;36718;-86
2021/03/12 05:58:03;;;;;;;2.60;1.00;;;5.60;48.90;;;;;;4999920;28;37330;-87
2021/03/12 06:00:30;;;;;;;6.83;1.60;;;5.60;48.90;;;;;;5036512;28;40753;-87
2021/03/12 06:02:59;;;;;;;3.17;1.17;;;5.80;48.60;;;;;;5020498;28;39242;-87
2021/03/12 06:05:36;;;;;;;2.43;0.87;;;6.00;48.70;;;;;;5020366;28;38346;-88
2021/03/12 06:08:05;;;;;;;2.50;1.17;;;6.00;48.50;;;;;;5022599;28;38658;-88
2021/03/12 06:10:35;;;;;;;5.17;1.20;;;6.10;48.40;;;;;;5020083;28;39720;-88
2021/03/12 06:13:07;;;;;;;5.50;1.10;;;6.20;48.00;;;;;;5043115;28;40654;-88
2021/03/12 06:15:36;;;;;;;3.53;1.10;;;6.20;48.10;;;;;;5039368;28;39624;-88
2021/03/12 06:18:14;;;;;;;5.17;1.10;;;6.10;48.10;;;;;;5022064;28;37195;-87
2021/03/12 06:20:42;;;;;;;4.30;1.90;;;6.10;48.00;;;;;;5017978;28;39333;-87
2021/03/12 06:23:11;;;;;;;2.23;0.67;;;6.10;48.20;;;;;;5022978;28;37701;-88
2021/03/12 06:25:39;;;;;;;2.53;0.93;;;6.00;48.30;;;;;;5006415;28;36814;-88
2021/03/12 06:28:21;;;;;;;6.20;1.50;;;6.10;48.50;;;;;;4991128;28;36260;-87
2021/03/12 06:31:27;;;;;;;3.37;1.10;;;6.20;48.70;;;;;;5002500;28;39792;-88
2021/03/12 06:34:13;;;;;;;5.43;0.90;;;6.40;48.70;;;;;;5028474;28;39673;-87
2021/03/12 06:37:21;;;;;;;4.17;1.27;;;6.60;48.00;;;;;;5027163;28;38258;-87
2021/03/12 06:39:57;;;;;;;2.27;1.00;;;6.70;47.70;;;;;;5003077;28;36168;-87
2021/03/12 06:42:32;;;;;;;5.80;1.17;;;6.70;47.50;;;;;;5007918;28;38389;-88
2021/03/12 06:45:01;;;;;;;5.33;0.83;;;6.60;47.50;;;;;;5033240;28;38987;-88
2021/03/12 06:47:30;;;;;;;3.37;0.93;;;6.50;47.60;;;;;;5015843;28;37879;-87
2021/03/12 06:50:21;;;;;;;2.37;0.90;;;6.40;48.00;;;;;;5008064;28;37371;-90
2021/03/12 06:52:52;;;;;;;4.93;0.90;;;6.60;49.20;;;;;;5006175;28;38721;-87
2021/03/12 06:55:43;;;;;;;7.40;1.10;;;7.60;48.60;;;;;;5011471;28;38295;-89
2021/03/12 06:58:17;;;;;;;1.43;0.90;;;10.20;44.40;;;;;;5003413;28;37632;-88
2021/03/12 07:01:19;;;;;;;1.70;0.60;;;13.00;37.80;;;;;;5037477;28;38977;-88
2021/03/12 07:04:07;;;;;;;4.00;1.10;;;14.00;33.40;;;;;;5011439;28;39691;-88
2021/03/12 07:06:44;;;;;;;1.80;0.77;;;13.50;33.60;;;;;;5007598;28;38925;-88
2021/03/12 07:09:18;;;;;;;7.10;0.90;;;12.80;34.50;;;;;;5019306;28;37934;-88
2021/03/12 07:12:11;;;;;;;3.70;1.40;;;12.10;35.70;;;;;;5025384;28;38706;-89
2021/03/12 07:14:57;;;;;;;8.90;1.40;;;11.30;37.30;;;;;;5003494;28;39192;-88
2021/03/12 07:17:45;;;;;;;2.50;0.70;;;10.70;38.20;;;;;;5013681;28;40338;-88
2021/03/12 07:20:21;;;;;;;2.50;0.70;;;10.30;39.60;;;;;;5001908;28;38048;-88
2021/03/12 07:22:52;;;;;;;6.87;1.00;;;11.70;38.00;;;;;;5000911;28;37200;-88
2021/03/12 07:25:24;;;;;;;2.80;0.90;;;12.90;35.20;;;;;;5014397;28;38645;-87
2021/03/12 07:28:02;;;;;;;2.60;0.80;;;12.90;34.40;;;;;;5023322;28;39370;-87
2021/03/12 07:30:42;;;;;;;3.17;1.20;;;12.00;35.00;;;;;;4997647;28;37590;-90
2021/03/12 07:33:16;;;;;;;2.90;0.70;;;11.60;36.80;;;;;;4996666;28;35796;-87
2021/03/12 07:35:47;;;;;;;5.87;1.00;;;11.60;36.90;;;;;;4983076;28;38408;-87
2021/03/12 07:38:37;;;;;;;5.43;0.80;;;11.50;36.50;;;;;;4990112;28;38953;-86
2021/03/12 07:41:16;;;;;;;7.83;1.00;;;11.30;36.60;;;;;;5002199;28;36721;-87
2021/03/12 07:43:54;;;;;;;2.70;0.70;;;11.00;36.90;;;;;;4988090;28;37197;-87
2021/03/12 07:46:50;;;;;;;5.57;1.00;;;10.60;37.70;;;;;;4997848;28;38397;-85
2021/03/12 07:49:36;;;;;;;3.13;1.30;;;10.40;38.30;;;;;;4994785;28;39717;-86
2021/03/12 07:52:17;;;;;;;1.87;0.90;;;10.20;39.20;;;;;;4982058;28;37568;-87
2021/03/12 07:54:50;;;;;;;5.50;1.37;;;10.00;39.40;;;;;;4993105;28;35637;-88
2021/03/12 07:57:41;;;;;;;4.37;1.00;;;10.20;39.30;;;;;;5016543;28;39486;-87
2021/03/12 08:01:07;;;;;;;1.67;0.90;;;10.30;38.80;;;;;;4996623;28;38781;-87
2021/03/12 08:03:44;;;;;;;1.80;0.70;;;10.30;37.90;;;;;;5007699;28;37320;-88
2021/03/12 08:06:31;;;;;;;3.43;0.80;;;10.00;38.30;;;;;;5004624;28;37362;-87
2021/03/12 08:09:32;;;;;;;2.37;1.40;;;9.90;40.00;;;;;;5007392;28;40461;-87
2021/03/12 08:12:29;;;;;;;3.10;0.80;;;10.10;40.40;;;;;;5001701;28;39232;-87
2021/03/12 08:15:15;;;;;;;1.93;0.60;;;11.60;37.20;;;;;;5003929;28;37304;-87
2021/03/12 08:17:44;;;;;;;5.33;0.97;;;12.30;35.30;;;;;;4984763;28;35908;-86
2021/03/12 08:20:30;;;;;;;3.10;1.03;;;12.40;34.10;;;;;;5002149;28;38076;-88
2021/03/12 08:23:34;;;;;;;2.73;0.77;;;11.90;35.20;;;;;;4999736;28;38610;-87
2021/03/12 08:26:49;;;;;;;1.70;0.70;;;11.80;36.00;;;;;;5006741;28;37965;-87
2021/03/12 08:29:37;;;;;;;2.33;0.97;;;11.90;35.40;;;;;;4994942;28;38666;-87
2021/03/12 08:32:39;;;;;;;4.20;1.07;;;12.80;35.80;;;;;;5002815;28;38625;-87
2021/03/12 08:35:42;;;;;;;3.37;1.30;;;15.00;31.50;;;;;;4926165;28;39478;-88
2021/03/12 08:38:45;;;;;;;3.63;0.87;;;15.50;30.30;;;;;;4995481;28;38075;-88
2021/03/12 08:41:21;;;;;;;1.20;0.80;;;15.90;30.00;;;;;;5010566;28;37300;-88
2021/03/12 08:44:14;;;;;;;2.93;0.80;;;16.10;29.90;;;;;;4983889;28;39783;-88
2021/03/12 08:47:16;;;;;;;2.53;0.93;;;17.80;29.20;;;;;;4994793;28;39721;-89
2021/03/12 08:49:44;;;;;;;4.10;0.77;;;20.80;26.70;;;;;;5020530;28;37100;-89
2021/03/12 08:52:15;;;;;;;1.67;0.67;;;22.70;24.50;;;;;;5003289;28;38112;-89
2021/03/12 08:54:50;;;;;;;2.17;0.80;;;23.80;23.00;;;;;;5008993;28;40298;-91
2021/03/12 08:57:21;;;;;;;2.40;1.03;;;24.80;22.10;;;;;;5003462;28;39539;-89
2021/03/12 09:00:04;;;;;;;2.40;0.80;;;25.20;21.30;;;;;;4991311;28;36808;-89
2021/03/12 09:02:50;;;;;;;2.70;0.90;;;25.60;21.00;;;;;;5011492;28;37774;-89
2021/03/12 09:05:28;;;;;;;3.83;0.77;;;25.80;20.90;;;;;;4989675;28;38495;-89
2021/03/12 09:08:15;;;;;;;2.27;0.80;;;25.70;20.10;;;;;;5003547;28;40442;-88
2021/03/12 09:11:06;;;;;;;2.67;0.77;;;24.30;21.00;;;;;;4984386;28;37826;-88
2021/03/12 09:13:39;;;;;;;5.90;1.03;;;22.60;21.30;;;;;;5013069;28;37372;-88
2021/03/12 09:16:09;;;;;;;3.53;0.80;;;20.60;22.90;;;;;;4992986;28;38764;-89
2021/03/12 09:18:40;;;;;;;6.00;0.93;;;18.50;24.40;;;;;;5009818;28;38107;-88
2021/03/12 09:21:11;;;;;;;4.80;0.97;;;16.90;26.10;;;;;;5029751;28;39041;-87
2021/03/12 09:23:42;;;;;;;2.27;0.87;;;15.90;27.70;;;;;;5013699;28;37404;-87
2021/03/12 09:26:12;;;;;;;1.30;0.73;;;15.20;27.90;;;;;;5011541;28;40815;-88
2021/03/12 09:28:47;;;;;;;1.37;0.80;;;14.50;28.50;;;;;;4998927;28;41477;-87
2021/03/12 09:31:29;;;;;;;2.20;0.60;;;15.00;28.80;;;;;;5015088;28;39186;-88
2021/03/12 09:34:00;;;;;;;4.30;1.00;;;16.80;26.50;;;;;;5015178;28;36890;-88
2021/03/12 09:36:37;;;;;;;5.63;1.33;;;17.20;25.90;;;;;;5002111;28;38539;-88
2021/03/12 09:39:19;;;;;;;4.47;0.90;;;16.90;26.30;;;;;;5000072;28;39298;-89
2021/03/12 09:41:53;;;;;;;7.10;1.23;;;16.50;26.50;;;;;;4998302;28;36815;-88
2021/03/12 09:44:23;;;;;;;4.23;1.27;;;16.10;26.70;;;;;;4990866;28;38052;-88
2021/03/12 09:47:00;;;;;;;3.47;0.93;;;15.60;27.20;;;;;;5000236;28;39776;-89
2021/03/12 09:49:33;;;;;;;5.13;0.90;;;15.00;27.50;;;;;;4985172;28;38765;-88
2021/03/12 09:52:06;;;;;;;2.37;1.00;;;14.60;28.40;;;;;;4992805;28;36972;-88
2021/03/12 09:54:37;;;;;;;1.70;1.00;;;14.50;28.80;;;;;;4985267;28;37024;-87
2021/03/12 09:57:08;;;;;;;2.20;1.00;;;14.30;28.30;;;;;;5008807;28;40261;-86
2021/03/12 09:59:37;;;;;;;3.07;0.93;;;14.20;28.40;;;;;;5032257;28;39043;-89
2021/03/12 10:02:23;;;;;;;8.73;1.00;;;14.10;28.80;;;;;;5002283;28;39001;-87
2021/03/12 10:05:17;;;;;;;2.60;1.07;;;14.70;27.70;;;;;;4993562;28;38203;-85
2021/03/12 10:08:10;;;;;;;1.83;0.73;;;15.00;27.50;;;;;;4981851;28;40384;-87
2021/03/12 10:10:58;;;;;;;2.57;1.00;;;15.00;28.00;;;;;;4977011;28;39163;-87
2021/03/12 10:13:32;;;;;;;4.07;0.90;;;15.90;27.10;;;;;;5002065;28;38690;-87
2021/03/12 10:16:12;;;;;;;2.90;1.00;;;17.30;26.00;;;;;;5002520;28;35960;-86
2021/03/12 10:18:56;;;;;;;3.73;0.93;;;17.80;24.50;;;;;;5018868;28;40752;-88
2021/03/12 10:21:23;;;;;;;2.00;0.77;;;17.30;24.30;;;;;;5005875;28;39060;-87
2021/03/12 10:23:51;;;;;;;2.50;0.70;;;16.30;25.00;;;;;;5012721;28;37897;-86
2021/03/12 10:26:23;;;;;;;4.30;0.73;;;15.50;25.70;;;;;;5002020;28;35924;-87
2021/03/12 10:28:50;;;;;;;2.70;0.70;;;15.50;26.90;;;;;;4999994;28;38538;-88
2021/03/12 10:31:17;;;;;;;2.13;0.87;;;16.50;26.60;;;;;;5010020;28;38432;-89
2021/03/12 10:33:50;;;;;;;4.83;0.70;;;18.60;25.10;;;;;;4997472;28;38258;-87
2021/03/12 10:36:19;;;;;;;7.80;1.00;;;20.00;23.30;;;;;;5014947;28;37313;-88
2021/03/12 10:38:47;;;;;;;12.27;2.40;;;19.50;22.80;;;;;;5011041;28;39433;-87
2021/03/12 10:41:20;;;;;;;4.53;0.93;;;18.40;23.90;;;;;;5004997;28;37207;-88
2021/03/12 10:43:56;;;;;;;2.10;0.90;;;17.90;24.80;;;;;;5006245;28;37926;-88
2021/03/12 10:46:25;;;;;;;1.50;0.70;;;18.20;25.80;;;;;;5014942;28;38331;-87
2021/03/12 10:48:52;;;;;;;7.87;1.33;;;19.00;24.40;;;;;;5009553;28;39933;-88
2021/03/12 10:51:20;;;;;;;10.77;1.57;;;19.70;23.80;;;;;;5014709;28;39168;-89
2021/03/12 10:53:49;;;;;;;1.83;0.80;;;20.00;22.60;;;;;;4997732;28;38332;-88
2021/03/12 10:56:17;;;;;;;6.33;1.17;;;19.30;23.30;;;;;;5014955;28;34241;-88
2021/03/12 10:58:45;;;;;;;3.17;1.10;;;18.60;24.20;;;;;;5008238;28;39873;-86
2021/03/12 11:01:14;;;;;;;3.13;0.80;;;17.50;26.10;;;;;;4981686;28;38545;-85
2021/03/12 11:03:44;;;;;;;2.43;1.10;;;16.80;27.00;;;;;;5008038;28;39185;-86
2021/03/12 11:06:12;;;;;;;4.73;0.97;;;16.20;27.80;;;;;;4998218;28;37120;-87
2021/03/12 11:08:39;;;;;;;1.87;0.80;;;16.10;28.40;;;;;;5013121;28;39242;-86
2021/03/12 11:11:10;;;;;;;3.87;1.00;;;16.70;28.60;;;;;;4998944;28;39950;-86
2021/03/12 11:13:39;;;;;;;3.50;1.03;;;17.40;27.50;;;;;;5024325;28;36641;-85
2021/03/12 11:16:08;;;;;;;4.60;1.10;;;17.60;26.10;;;;;;4982916;28;35916;-86
2021/03/12 11:18:36;;;;;;;2.33;0.90;;;17.40;27.00;;;;;;4993070;28;38161;-86
2021/03/12 11:21:05;;;;;;;2.17;0.83;;;17.10;27.30;;;;;;4985770;28;39471;-87
2021/03/12 11:23:33;;;;;;;2.80;1.13;;;16.70;27.40;;;;;;4990816;28;37722;-86
2021/03/12 11:26:00;;;;;;;4.27;0.97;;;15.90;29.30;;;;;;4992916;28;37700;-86
2021/03/12 11:28:28;;;;;;;2.87;0.77;;;15.00;33.10;;;;;;4975895;28;38693;-86
2021/03/12 11:30:55;;;;;;;2.63;0.97;;;13.40;38.00;;;;;;4989530;28;38904;-85
2021/03/12 11:33:25;;;;;;;2.30;1.07;;;12.40;44.60;;;;;;4990553;28;37887;-86
2021/03/12 11:35:52;;;;;;;2.50;0.90;;;12.20;44.60;;;;;;4968166;28;36056;-85
2021/03/12 11:38:20;;;;;;;9.03;1.47;;;12.20;41.10;;;;;;4999579;28;39295;-85
2021/03/12 11:40:49;;;;;;;2.60;0.63;;;12.50;42.30;;;;;;4969769;28;39387;-85
2021/03/12 11:43:17;;;;;;;3.50;0.90;;;12.70;40.50;;;;;;4993173;28;37908;-85
2021/03/12 11:45:44;;;;;;;2.87;1.30;;;13.00;38.40;;;;;;4992276;28;20576;-85
2021/03/12 11:48:12;;;;;;;1.27;0.83;;;12.90;37.20;;;;;;5001575;28;40365;-87
2021/03/12 11:50:40;;;;;;;3.43;1.00;;;12.70;38.20;;;;;;4968068;28;37503;-89
2021/03/12 11:53:07;;;;;;;3.03;0.90;;;12.90;37.60;;;;;;4993672;28;38654;-89
2021/03/12 11:55:35;;;;;;;1.73;0.80;;;13.10;36.50;;;;;;4991672;28;36250;-90
2021/03/12 11:58:04;;;;;;;3.90;1.00;;;13.20;35.80;;;;;;4992999;28;38845;-90
2021/03/12 12:00:32;;;;;;;2.60;0.80;;;13.00;36.10;;;;;;5008041;28;40600;-87
2021/03/12 12:03:01;;;;;;;2.20;0.70;;;12.90;36.20;;;;;;5004270;28;36986;-91
2021/03/12 12:05:29;;;;;;;5.23;0.87;;;12.50;35.90;;;;;;5021451;28;38204;-89
2021/03/12 12:07:57;;;;;;;1.20;0.70;;;11.90;37.00;;;;;;5004787;28;39255;-89
2021/03/12 12:10:24;;;;;;;1.30;0.70;;;11.80;37.30;;;;;;4997002;28;37979;-89
2021/03/12 12:13:05;;;;;;;1.90;0.60;;;11.70;36.80;;;;;;4995705;28;36569;-89
2021/03/12 12:15:33;;;;;;;1.90;0.63;;;11.50;35.60;;;;;;5007259;28;37084;-89
2021/03/12 12:18:07;;;;;;;3.67;0.60;;;11.50;35.50;;;;;;4975173;28;38541;-89
2021/03/12 12:20:42;;;;;;;2.57;0.70;;;11.60;34.20;;;;;;4983993;28;37902;-87
2021/03/12 12:23:11;;;;;;;3.73;0.80;;;11.80;34.30;;;;;;4986248;28;38839;-90
2021/03/12 12:25:41;;;;;;;3.70;0.70;;;12.30;32.60;;;;;;4971155;28;38678;-89
2021/03/12 12:28:10;;;;;;;2.10;0.70;;;12.70;31.60;;;;;;4977674;28;41318;-88
2021/03/12 12:30:40;;;;;;;4.50;0.80;;;12.80;30.90;;;;;;4985391;28;39111;-89
2021/03/12 12:33:08;;;;;;;1.10;0.70;;;12.70;30.90;;;;;;4980152;28;38479;-89
2021/03/12 12:35:37;;;;;;;2.70;0.60;;;12.40;31.60;;;;;;4991823;28;36380;-90
2021/03/12 12:38:06;;;;;;;11.40;0.80;;;11.80;32.40;;;;;;4973994;28;39650;-88
2021/03/12 12:40:35;;;;;;;4.03;0.70;;;11.70;32.70;;;;;;4962198;28;37693;-89
2021/03/12 12:43:02;;;;;;;3.27;1.20;;;11.60;33.40;;;;;;4990776;28;38222;-89
2021/03/12 12:45:33;;;;;;;5.30;0.70;;;11.50;32.80;;;;;;4988274;28;36408;-90
2021/03/12 12:48:00;;;;;;;5.33;0.70;;;11.40;34.30;;;;;;5008638;28;41179;-89
2021/03/12 12:50:30;;;;;;;1.77;0.80;;;11.40;34.60;;;;;;5002994;28;39034;-88
2021/03/12 12:52:58;;;;;;;6.33;1.33;;;11.30;34.20;;;;;;4989987;28;37834;-90
2021/03/12 12:55:25;;;;;;;5.40;1.13;;;11.50;34.70;;;;;;5007720;28;38284;-91
2021/03/12 12:57:53;;;;;;;4.23;0.83;;;11.80;33.90;;;;;;4985433;28;38719;-89
2021/03/12 13:00:22;;;;;;;6.20;1.07;;;12.10;33.30;;;;;;4984411;28;38844;-89
2021/03/12 13:02:50;;;;;;;2.50;0.80;;;12.00;32.20;;;;;;5005302;28;37853;-88
2021/03/12 13:05:18;;;;;;;1.67;0.90;;;12.00;33.00;;;;;;4991924;28;36760;-89
2021/03/12 13:07:47;;;;;;;2.93;0.70;;;12.00;31.10;;;;;;4982944;28;38435;-88
2021/03/12 13:10:14;;;;;;;2.03;0.70;;;12.20;30.00;;;;;;4965216;28;39355;-88
2021/03/12 13:12:42;;;;;;;2.20;0.77;;;12.40;30.60;;;;;;4975940;28;37125;-89
2021/03/12 13:15:11;;;;;;;6.60;0.80;;;12.20;27.80;;;;;;4978500;28;35738;-89
2021/03/12 13:17:41;;;;;;;2.83;0.60;;;11.90;26.80;;;;;;4984386;28;40361;-89
2021/03/12 13:20:11;;;;;;;2.07;0.70;;;11.90;27.20;;;;;;4971884;28;39327;-89
2021/03/12 13:22:41;;;;;;;3.63;0.80;;;12.00;27.00;;;;;;4991270;28;37114;-87
2021/03/12 13:25:09;;;;;;;1.17;0.60;;;12.10;27.60;;;;;;4975975;28;37760;-87